createdAt,value
2023-03-22T00:03:01.207Z,55.67
2023-03-22T00:08:07.242Z,55.89
2023-03-22T00:13:11.404Z,55.77
2023-03-22T00:18:14.599Z,55.37
2023-03-22T00:23:17.090Z,55.36
2023-03-22T00:28:19.720Z,55.53
2023-03-22T00:33:23.017Z,55.69
2023-03-22T00:38:35.959Z,55.66
2023-03-22T00:43:44.609Z,55.54
2023-03-22T00:48:46.881Z,55.40
2023-03-22T00:53:52.416Z,55.81
2023-03-22T00:58:55.146Z,55.91
2023-03-22T01:03:57.630Z,55.41
2023-03-22T01:08:59.853Z,55.47
2023-03-22T01:14:01.856Z,55.67
2023-03-22T01:19:04.125Z,55.82
2023-03-22T01:24:06.624Z,55.87
2023-03-22T01:29:09.186Z,55.32
2023-03-22T01:34:11.660Z,55.58
2023-03-22T01:39:13.948Z,55.68
2023-03-22T01:44:22.817Z,55.91
2023-03-22T01:49:33.654Z,55.74
2023-03-22T01:54:49.789Z,55.11
2023-03-22T02:00:04.241Z,55.67
2023-03-22T02:05:25.894Z,55.86
2023-03-22T02:10:31.416Z,55.77
2023-03-22T02:15:56.033Z,55.63
2023-03-22T02:21:57.244Z,55.73
2023-03-22T02:27:16.223Z,55.76
2023-03-22T02:32:41.926Z,55.96
2023-03-22T02:37:53.094Z,55.57
2023-03-22T02:42:59.771Z,55.35
2023-03-22T02:48:11.160Z,55.77
2023-03-22T02:53:42.563Z,56.02
2023-03-22T02:58:47.753Z,55.81
2023-03-22T03:03:53.091Z,55.65
2023-03-22T03:08:58.178Z,55.74
2023-03-22T03:14:01.576Z,55.64
2023-03-22T03:19:14.927Z,55.97
2023-03-22T03:24:31.958Z,55.93
2023-03-22T03:29:34.648Z,55.52
2023-03-22T03:34:49.754Z,55.34
2023-03-22T03:40:01.736Z,55.96
2023-03-22T03:45:04.770Z,55.92
2023-03-22T03:50:08.578Z,55.67
2023-03-22T03:55:10.956Z,55.20
2023-03-22T04:00:17.144Z,55.59
2023-03-22T04:05:39.551Z,55.73
2023-03-22T04:10:42.066Z,55.94
2023-03-22T04:15:44.220Z,55.17
2023-03-22T04:20:53.725Z,55.51
2023-03-22T04:26:00.046Z,55.70
2023-03-22T04:31:22.110Z,55.93
2023-03-22T04:36:40.144Z,55.40
2023-03-22T04:42:08.576Z,55.11
2023-03-22T04:47:10.794Z,55.30
2023-03-22T04:52:13.185Z,55.66
2023-03-22T04:57:22.861Z,55.77
2023-03-22T05:02:25.926Z,55.29
2023-03-22T05:07:29.215Z,55.37
2023-03-22T05:12:34.022Z,55.74
2023-03-22T05:17:50.726Z,55.87
2023-03-22T05:22:57.090Z,55.58
2023-03-22T05:28:02.419Z,54.98
2023-03-22T05:33:24.738Z,55.24
2023-03-22T05:38:30.436Z,55.80
2023-03-22T05:43:35.726Z,55.67
2023-03-22T05:48:40.453Z,55.19
2023-03-22T05:53:45.336Z,54.99
2023-03-22T05:58:52.013Z,55.44
2023-03-22T06:03:56.612Z,55.69
2023-03-22T06:09:16.831Z,55.83
2023-03-22T06:14:23.350Z,55.54
2023-03-22T06:19:48.039Z,55.50
2023-03-22T06:24:51.517Z,55.74
2023-03-22T06:30:04.100Z,55.83
2023-03-22T06:35:13.168Z,55.02
2023-03-22T06:40:15.579Z,55.24
2023-03-22T06:45:18.295Z,55.73
2023-03-22T06:50:21.321Z,55.91
2023-03-22T06:55:43.491Z,55.85
2023-03-22T07:00:49.632Z,55.79
2023-03-22T07:06:01.293Z,55.35
2023-03-22T07:11:07.073Z,55.65
2023-03-22T07:16:10.198Z,55.84
2023-03-22T07:21:34.099Z,55.42
2023-03-22T07:26:41.236Z,55.65
2023-03-22T07:31:46.117Z,55.59
2023-03-22T07:36:57.480Z,55.79
2023-03-22T07:42:00.979Z,56.05
2023-03-22T07:47:14.859Z,55.28
2023-03-22T07:52:37.508Z,55.56
2023-03-22T07:57:39.734Z,55.62
2023-03-22T08:02:46.192Z,55.83
2023-03-22T08:08:07.207Z,55.83
2023-03-22T08:13:09.703Z,55.18
2023-03-22T08:18:12.154Z,55.41
2023-03-22T08:23:16.439Z,55.50
2023-03-22T08:28:18.779Z,55.76
2023-03-22T08:33:23.817Z,55.67
2023-03-22T08:38:27.349Z,55.19
2023-03-22T08:43:30.019Z,55.46
2023-03-22T08:48:32.349Z,55.66
2023-03-22T08:53:43.355Z,55.58
2023-03-22T08:59:09.648Z,55.68
2023-03-22T09:04:21.705Z,55.58
2023-03-22T09:09:23.856Z,55.58
2023-03-22T09:14:28.432Z,55.73
2023-03-22T09:19:31.913Z,55.88
2023-03-22T09:24:34.239Z,55.94
2023-03-22T09:29:38.726Z,55.80
2023-03-22T09:34:45.904Z,55.76
2023-03-22T09:39:49.569Z,55.88
2023-03-22T09:44:53.555Z,55.78
2023-03-22T09:50:13.912Z,55.65
2023-03-22T09:55:26.849Z,55.60
2023-03-22T10:00:40.527Z,55.75
2023-03-22T10:05:54.668Z,55.94
2023-03-22T10:10:59.118Z,55.95
2023-03-22T10:16:04.681Z,56.32
2023-03-22T10:21:09.928Z,56.19
2023-03-22T10:26:43.015Z,56.23
2023-03-22T10:31:46.284Z,56.18
2023-03-22T10:36:52.002Z,56.12
2023-03-22T10:41:58.096Z,55.79
2023-03-22T10:47:07.482Z,56.00
2023-03-22T10:52:43.113Z,55.91
2023-03-22T10:58:10.118Z,55.91
2023-03-22T11:03:46.499Z,56.11
2023-03-22T11:08:52.085Z,56.09
2023-03-22T11:13:57.089Z,56.24
2023-03-22T11:19:01.810Z,56.25
2023-03-22T11:24:07.331Z,55.86
2023-03-22T11:29:19.217Z,56.12
2023-03-22T11:34:23.341Z,56.13
2023-03-22T11:39:30.860Z,56.15
2023-03-22T11:44:36.073Z,56.26
2023-03-22T11:49:45.730Z,56.11
2023-03-22T11:54:49.132Z,56.43
2023-03-22T11:59:54.004Z,56.22
2023-03-22T12:05:09.462Z,55.99
2023-03-22T12:10:17.791Z,56.08
2023-03-22T12:15:23.900Z,56.18
2023-03-22T12:20:52.936Z,56.04
2023-03-22T12:26:06.519Z,56.05
2023-03-22T12:31:19.969Z,56.04
2023-03-22T12:36:34.591Z,56.08
2023-03-22T12:41:44.455Z,55.91
2023-03-22T12:46:55.028Z,56.24
2023-03-22T12:52:22.497Z,56.23
2023-03-22T12:57:24.938Z,56.38
2023-03-22T13:02:33.311Z,56.38
2023-03-22T13:07:48.908Z,56.34
2023-03-22T13:13:09.544Z,57.10
2023-03-22T13:18:43.705Z,57.61
2023-03-22T13:23:57.765Z,57.87
2023-03-22T13:29:02.111Z,58.32
2023-03-22T13:34:05.167Z,58.28
2023-03-22T13:39:12.641Z,58.45
2023-03-22T13:44:44.062Z,58.80
2023-03-22T13:49:53.500Z,58.91
2023-03-22T13:54:58.583Z,59.47
2023-03-22T14:00:29.664Z,59.35
2023-03-22T14:05:36.589Z,59.38
2023-03-22T14:11:07.666Z,59.27
2023-03-22T14:16:22.170Z,59.02
2023-03-22T14:21:34.238Z,59.26
